createdAt,value
2018-12-14T00:00:01.335Z,32.40
2018-12-14T00:02:30.226Z,25.37
2018-12-14T00:04:57.861Z,29.30
2018-12-14T00:07:25.506Z,27.40
2018-12-14T00:09:54.911Z,28.10
2018-12-14T00:12:22.944Z,30.17
2018-12-14T00:14:50.652Z,29.60
2018-12-14T00:17:18.397Z,31.20
2018-12-14T00:19:46.055Z,34.97
2018-12-14T00:22:13.708Z,32.20
2018-12-14T00:24:41.744Z,36.23
2018-12-14T00:27:10.037Z,29.20
2018-12-14T00:29:38.301Z,32.23
2018-12-14T00:32:06.045Z,27.67
2018-12-14T00:34:33.875Z,33.10
2018-12-14T00:37:01.691Z,33.50
2018-12-14T00:39:29.456Z,33.50
2018-12-14T00:41:57.116Z,30.33
2018-12-14T00:44:24.767Z,29.37
2018-12-14T00:46:52.401Z,33.60
2018-12-14T00:49:20.057Z,30.53
2018-12-14T00:51:47.756Z,31.03
2018-12-14T00:54:15.489Z,29.60
2018-12-14T00:56:43.181Z,28.60
2018-12-14T00:59:10.857Z,26.50
2018-12-14T01:01:38.513Z,31.00
2018-12-14T01:04:06.209Z,31.87
2018-12-14T01:06:33.883Z,32.63
2018-12-14T01:09:01.605Z,32.70
2018-12-14T01:11:29.383Z,35.00
2018-12-14T01:13:57.049Z,32.70
2018-12-14T01:16:24.767Z,31.83
2018-12-14T01:18:52.387Z,32.97
2018-12-14T01:21:20.097Z,29.77
2018-12-14T01:23:47.893Z,33.03
2018-12-14T01:26:15.785Z,36.57
2018-12-14T01:28:43.440Z,28.03
2018-12-14T01:31:11.094Z,29.43
2018-12-14T01:33:38.759Z,34.80
2018-12-14T01:36:06.408Z,25.07
2018-12-14T01:38:34.058Z,29.17
2018-12-14T01:41:01.738Z,29.27
2018-12-14T01:43:29.372Z,26.40
2018-12-14T01:45:56.985Z,23.77
2018-12-14T01:48:24.685Z,26.53
2018-12-14T01:50:52.303Z,26.63
2018-12-14T01:53:19.938Z,23.40
2018-12-14T01:55:47.671Z,25.07
2018-12-14T01:58:15.312Z,24.30
2018-12-14T02:00:42.943Z,30.57
2018-12-14T02:03:10.604Z,34.43
2018-12-14T02:05:38.251Z,31.53
2018-12-14T02:08:05.905Z,32.30
2018-12-14T02:10:33.623Z,33.07
2018-12-14T02:13:01.337Z,32.87
2018-12-14T02:15:29.172Z,32.37
2018-12-14T02:17:56.847Z,29.67
2018-12-14T02:20:24.482Z,38.60
2018-12-14T02:22:52.138Z,35.73
2018-12-14T02:25:19.841Z,32.50
2018-12-14T02:27:47.509Z,33.73
2018-12-14T02:30:26.887Z,38.43
2018-12-14T02:32:54.548Z,44.50
2018-12-14T02:35:22.207Z,33.43
2018-12-14T02:37:50.131Z,31.20
2018-12-14T02:40:17.773Z,30.13
2018-12-14T02:42:46.320Z,30.73
2018-12-14T02:45:14.214Z,35.27
2018-12-14T02:47:41.971Z,33.43
2018-12-14T02:50:09.665Z,30.47
2018-12-14T02:52:37.570Z,30.00
2018-12-14T02:55:05.371Z,30.07
2018-12-14T02:57:33.053Z,29.33
2018-12-14T03:00:00.707Z,30.10
2018-12-14T03:02:28.597Z,33.43
2018-12-14T03:04:56.268Z,35.23
2018-12-14T03:07:23.935Z,35.37
2018-12-14T03:09:51.577Z,28.50
2018-12-14T03:12:26.517Z,29.50
2018-12-14T03:14:49.039Z,27.47
2018-12-14T03:17:16.948Z,29.87
2018-12-14T03:19:44.751Z,36.80
2018-12-14T03:22:13.868Z,21.20
2018-12-14T03:24:41.632Z,23.47
2018-12-14T03:27:09.540Z,24.80
2018-12-14T03:29:37.226Z,21.77
2018-12-14T03:32:04.948Z,23.10
2018-12-14T03:34:32.664Z,23.83
2018-12-14T03:37:00.328Z,20.77
2018-12-14T03:39:28.054Z,18.03
2018-12-14T03:41:55.769Z,18.53
2018-12-14T03:44:23.445Z,20.83
2018-12-14T03:46:51.112Z,19.00
2018-12-14T03:49:18.796Z,16.50
2018-12-14T03:51:46.432Z,15.43
2018-12-14T03:54:14.142Z,19.47
2018-12-14T03:56:41.856Z,20.27
2018-12-14T03:59:09.519Z,17.10
2018-12-14T04:01:37.257Z,21.10
2018-12-14T04:04:04.945Z,19.63
2018-12-14T04:06:32.602Z,19.77
2018-12-14T04:09:00.399Z,14.40
2018-12-14T04:11:28.124Z,18.93
2018-12-14T04:13:55.826Z,17.90
2018-12-14T04:16:23.485Z,17.33
2018-12-14T04:18:51.194Z,14.87
2018-12-14T04:21:18.917Z,16.33
2018-12-14T04:23:46.571Z,12.70
2018-12-14T04:26:14.227Z,13.10
2018-12-14T04:28:41.841Z,14.93
2018-12-14T04:31:09.517Z,13.60
2018-12-14T04:33:37.311Z,12.57
2018-12-14T04:36:04.967Z,13.00
2018-12-14T04:38:32.585Z,14.67
2018-12-14T04:41:00.277Z,17.07
2018-12-14T04:43:27.955Z,13.60
2018-12-14T04:45:55.628Z,14.43
2018-12-14T04:48:23.375Z,12.57
2018-12-14T04:50:51.076Z,15.37
2018-12-14T04:53:18.815Z,15.77
2018-12-14T04:55:46.550Z,16.07
2018-12-14T04:58:14.288Z,16.90
2018-12-14T05:00:41.994Z,16.97
2018-12-14T05:03:09.634Z,13.77
2018-12-14T05:05:37.267Z,17.30
2018-12-14T05:08:05.067Z,13.20
2018-12-14T05:10:32.692Z,17.53
2018-12-14T05:13:00.340Z,17.10
2018-12-14T05:15:27.993Z,15.43
2018-12-14T05:17:55.749Z,16.40
2018-12-14T05:20:23.409Z,14.63
2018-12-14T05:22:51.046Z,16.30
2018-12-14T05:25:18.685Z,17.80
2018-12-14T05:27:46.329Z,18.37
2018-12-14T05:30:14.166Z,15.50
2018-12-14T05:32:41.817Z,19.50
2018-12-14T05:35:09.570Z,19.83
2018-12-14T05:37:37.230Z,26.57
2018-12-14T05:40:05.057Z,16.50
2018-12-14T05:42:32.721Z,15.00
2018-12-14T05:45:00.397Z,18.30
2018-12-14T05:47:28.177Z,22.27
2018-12-14T05:49:56.003Z,17.13
2018-12-14T05:52:23.704Z,16.13
2018-12-14T05:54:51.755Z,16.13
2018-12-14T05:57:19.401Z,17.00
2018-12-14T05:59:47.069Z,17.87
2018-12-14T06:02:14.762Z,16.40
2018-12-14T06:04:42.558Z,13.43
2018-12-14T06:07:10.192Z,20.23
2018-12-14T06:09:38.033Z,20.20
2018-12-14T06:12:07.266Z,17.63
2018-12-14T06:14:34.984Z,22.13
2018-12-14T06:17:02.631Z,13.03
2018-12-14T06:19:30.425Z,17.17
2018-12-14T06:21:58.245Z,20.93
2018-12-14T06:24:25.930Z,24.83
2018-12-14T06:26:53.593Z,19.17
2018-12-14T06:29:21.256Z,17.03
2018-12-14T06:31:48.886Z,17.70
2018-12-14T06:34:16.589Z,22.47
2018-12-14T06:36:44.352Z,19.70
2018-12-14T06:39:12.052Z,23.03
2018-12-14T06:41:40.268Z,22.13
2018-12-14T06:44:07.960Z,19.37
2018-12-14T06:46:35.572Z,25.17
2018-12-14T06:49:03.263Z,17.60
2018-12-14T06:51:30.949Z,21.70
2018-12-14T06:53:58.603Z,20.00
2018-12-14T06:56:26.339Z,20.97
2018-12-14T06:58:54.236Z,26.53
2018-12-14T07:01:21.995Z,21.03
2018-12-14T07:03:49.824Z,26.87
2018-12-14T07:06:17.600Z,24.80
2018-12-14T07:08:45.243Z,19.47
2018-12-14T07:11:12.985Z,21.50
2018-12-14T07:13:40.687Z,21.97
2018-12-14T07:16:08.351Z,21.80
2018-12-14T07:18:38.765Z,26.50
2018-12-14T07:21:06.783Z,32.43
2018-12-14T07:23:34.426Z,32.70
2018-12-14T07:26:02.105Z,31.00
2018-12-14T07:28:29.735Z,26.20
2018-12-14T07:30:57.386Z,22.60
2018-12-14T07:33:25.003Z,42.50
2018-12-14T07:35:52.641Z,19.50
2018-12-14T07:38:20.246Z,26.83
2018-12-14T07:40:47.890Z,25.03
2018-12-14T07:43:15.628Z,24.40
2018-12-14T07:45:43.299Z,29.60
2018-12-14T07:48:10.966Z,23.23
2018-12-14T07:50:38.710Z,27.97
2018-12-14T07:53:09.135Z,28.70
2018-12-14T07:55:36.338Z,27.97
2018-12-14T07:58:04.031Z,30.47
2018-12-14T08:00:31.774Z,29.13
2018-12-14T08:02:59.497Z,27.20
2018-12-14T08:05:27.206Z,32.43
2018-12-14T08:07:54.905Z,33.00
2018-12-14T08:10:22.975Z,32.20
2018-12-14T08:12:52.027Z,30.93
2018-12-14T08:15:20.063Z,33.27
2018-12-14T08:17:47.720Z,28.17
2018-12-14T08:20:17.278Z,27.53
2018-12-14T08:22:45.065Z,28.57
2018-12-14T08:25:12.827Z,26.83
2018-12-14T08:27:40.523Z,32.53
2018-12-14T08:30:09.278Z,29.77
2018-12-14T08:32:36.969Z,26.03
2018-12-14T08:35:05.661Z,27.77
2018-12-14T08:37:33.128Z,27.70
2018-12-14T08:40:00.890Z,24.90
2018-12-14T08:42:28.712Z,31.57
2018-12-14T08:44:56.430Z,24.43
2018-12-14T08:47:24.085Z,37.27
2018-12-14T08:49:51.739Z,31.40
2018-12-14T08:52:19.504Z,35.87
2018-12-14T08:54:47.130Z,29.83
2018-12-14T08:57:14.850Z,36.60
2018-12-14T08:59:42.532Z,37.73
2018-12-14T09:02:10.295Z,30.20
2018-12-14T09:04:38.039Z,34.80
2018-12-14T09:07:05.728Z,34.40
2018-12-14T09:09:33.387Z,36.47
2018-12-14T09:12:01.057Z,29.00
2018-12-14T09:14:28.749Z,35.13
2018-12-14T09:16:56.397Z,36.83
2018-12-14T09:19:24.057Z,35.70
2018-12-14T09:21:51.718Z,35.77
2018-12-14T09:24:19.568Z,34.00
2018-12-14T09:26:47.368Z,31.40
2018-12-14T09:29:15.103Z,32.90
2018-12-14T09:31:42.879Z,36.93
2018-12-14T09:34:10.546Z,33.00
2018-12-14T09:36:38.189Z,29.90
2018-12-14T09:39:06.362Z,28.77
2018-12-14T09:44:00.781Z,30.90
2018-12-14T09:46:28.481Z,24.63
2018-12-14T09:48:56.183Z,29.47
2018-12-14T09:51:23.846Z,28.30
2018-12-14T09:53:51.560Z,34.67
2018-12-14T09:56:19.364Z,29.93
2018-12-14T09:58:47.060Z,24.50
2018-12-14T10:01:14.895Z,27.03
2018-12-14T10:03:42.729Z,29.07
2018-12-14T10:06:15.723Z,28.00
2018-12-14T10:08:40.828Z,24.90
2018-12-14T10:11:09.244Z,32.87
2018-12-14T10:13:36.946Z,40.80
2018-12-14T10:16:04.829Z,37.40
2018-12-14T10:18:32.640Z,30.60
2018-12-14T10:21:00.332Z,39.03
2018-12-14T10:23:28.152Z,38.47
2018-12-14T10:25:55.869Z,25.67
2018-12-14T10:28:23.601Z,35.20
2018-12-14T10:30:51.284Z,28.03
2018-12-14T10:33:18.932Z,27.00
2018-12-14T10:35:46.549Z,31.63
2018-12-14T10:38:14.266Z,25.53
2018-12-14T10:40:41.878Z,30.90
2018-12-14T10:43:09.573Z,28.50
2018-12-14T10:45:37.536Z,24.10
2018-12-14T10:48:05.250Z,33.83
2018-12-14T10:50:39.236Z,30.00
2018-12-14T10:53:04.762Z,29.80
2018-12-14T10:55:32.417Z,22.20
2018-12-14T10:58:00.290Z,27.40
2018-12-14T11:00:33.625Z,26.10
2018-12-14T11:03:01.366Z,25.90
2018-12-14T11:05:29.055Z,24.80
2018-12-14T11:07:56.747Z,24.03
2018-12-14T11:10:24.505Z,29.83
2018-12-14T11:12:52.223Z,28.43
2018-12-14T11:15:20.033Z,22.13
2018-12-14T11:17:47.731Z,29.00
2018-12-14T11:20:15.335Z,23.30
2018-12-14T11:22:43.024Z,27.77
2018-12-14T11:25:10.713Z,25.93
2018-12-14T11:27:38.387Z,23.40
2018-12-14T11:30:07.650Z,28.00
2018-12-14T11:32:35.362Z,29.73
2018-12-14T11:35:03.131Z,31.50
2018-12-14T11:37:30.857Z,24.27
2018-12-14T11:39:58.528Z,29.33
2018-12-14T11:42:26.275Z,24.93
2018-12-14T11:44:54.015Z,17.77
2018-12-14T11:47:21.947Z,17.80
2018-12-14T11:49:50.765Z,24.90
2018-12-14T11:52:18.413Z,22.40
2018-12-14T11:54:46.205Z,17.93
2018-12-14T11:57:13.968Z,19.30
2018-12-14T11:59:41.741Z,17.07
2018-12-14T12:02:09.497Z,21.40
2018-12-14T12:04:37.124Z,17.20
2018-12-14T12:07:04.840Z,18.30
2018-12-14T12:09:33.440Z,19.87
2018-12-14T12:12:01.310Z,17.27
2018-12-14T12:14:29.118Z,20.03
2018-12-14T12:16:56.856Z,21.83
2018-12-14T12:19:24.681Z,19.70
2018-12-14T12:21:53.438Z,19.03
2018-12-14T12:24:21.186Z,19.37
2018-12-14T12:26:48.923Z,21.43
2018-12-14T12:29:16.620Z,21.07
2018-12-14T12:31:44.405Z,17.83
2018-12-14T12:34:12.175Z,20.47
2018-12-14T12:36:39.958Z,18.30
2018-12-14T12:39:07.901Z,19.63
2018-12-14T12:41:35.572Z,21.93
2018-12-14T12:44:03.301Z,17.43
2018-12-14T12:46:31.115Z,20.20
2018-12-14T12:48:58.851Z,21.43
2018-12-14T12:51:26.795Z,20.90
2018-12-14T12:53:54.453Z,23.60
2018-12-14T12:56:22.223Z,17.40
2018-12-14T12:58:49.936Z,21.43
2018-12-14T13:01:17.629Z,20.13
2018-12-14T13:03:45.370Z,18.83
2018-12-14T13:06:13.000Z,18.40
2018-12-14T13:08:40.615Z,20.17
2018-12-14T13:11:08.331Z,17.40
2018-12-14T13:13:36.001Z,23.33
2018-12-14T13:16:03.743Z,21.40
2018-12-14T13:18:31.567Z,20.67
2018-12-14T13:20:59.227Z,22.10
2018-12-14T13:23:26.926Z,20.63
2018-12-14T13:25:54.548Z,24.37
2018-12-14T13:28:22.575Z,19.87
2018-12-14T13:30:50.355Z,18.43
2018-12-14T13:33:18.307Z,19.73
2018-12-14T13:35:46.025Z,19.50
2018-12-14T13:38:13.677Z,25.07
2018-12-14T13:40:41.489Z,16.63
2018-12-14T13:43:09.228Z,26.00
2018-12-14T13:45:36.907Z,17.93
2018-12-14T13:48:04.571Z,17.63
2018-12-14T13:50:32.373Z,20.73
2018-12-14T13:53:00.102Z,17.50
2018-12-14T13:55:27.744Z,16.77
2018-12-14T13:57:55.420Z,18.70
2018-12-14T14:00:23.223Z,17.30
2018-12-14T14:02:50.980Z,18.77
2018-12-14T14:05:18.730Z,19.40
2018-12-14T14:07:46.515Z,20.50
2018-12-14T14:10:14.326Z,21.20
2018-12-14T14:12:42.022Z,21.63
2018-12-14T14:15:10.026Z,20.97
2018-12-14T14:17:37.702Z,17.30
2018-12-14T14:20:06.821Z,29.43
2018-12-14T14:22:34.588Z,22.53
2018-12-14T14:25:04.367Z,21.30
2018-12-14T14:27:32.094Z,19.93
2018-12-14T14:29:59.778Z,23.20
2018-12-14T14:32:27.518Z,23.30
2018-12-14T14:34:55.218Z,23.27
2018-12-14T14:37:22.891Z,25.70
2018-12-14T14:39:50.597Z,22.90
2018-12-14T14:42:18.401Z,22.60
2018-12-14T14:44:46.024Z,22.03
2018-12-14T14:47:13.769Z,26.03
2018-12-14T14:49:41.461Z,19.30
2018-12-14T14:52:09.084Z,17.37
2018-12-14T14:54:39.863Z,19.13
2018-12-14T14:57:06.425Z,27.23
2018-12-14T14:59:34.599Z,22.53
2018-12-14T15:02:02.479Z,23.00
2018-12-14T15:04:30.154Z,24.97
2018-12-14T15:06:58.699Z,21.67
2018-12-14T15:09:26.372Z,24.10
2018-12-14T15:11:54.070Z,25.37
2018-12-14T15:14:21.794Z,21.70
2018-12-14T15:16:49.574Z,24.20
2018-12-14T15:19:17.291Z,22.97
2018-12-14T15:21:44.920Z,30.23
2018-12-14T15:24:12.828Z,26.33
2018-12-14T15:26:40.494Z,25.03
2018-12-14T15:29:08.168Z,21.83
2018-12-14T15:31:35.612Z,24.43
2018-12-14T15:34:03.264Z,25.00
2018-12-14T15:36:31.016Z,26.33
2018-12-14T15:38:58.807Z,19.10
2018-12-14T15:41:26.530Z,29.80
2018-12-14T15:43:54.170Z,23.83
2018-12-14T15:46:21.889Z,19.63
2018-12-14T15:48:49.547Z,13.30
2018-12-14T15:51:17.172Z,18.77
2018-12-14T15:53:44.797Z,13.10
2018-12-14T15:56:12.471Z,12.37
2018-12-14T15:58:40.071Z,13.57
2018-12-14T16:01:07.633Z,12.70
2018-12-14T16:03:35.038Z,10.27
2018-12-14T16:06:02.670Z,13.23
2018-12-14T16:08:30.256Z,13.07
2018-12-14T16:10:57.912Z,13.20
2018-12-14T16:13:25.542Z,21.27
2018-12-14T16:15:53.215Z,15.43
2018-12-14T16:18:20.705Z,15.00
2018-12-14T16:20:48.386Z,16.87
2018-12-14T16:23:16.353Z,15.70
2018-12-14T16:25:44.035Z,14.87
2018-12-14T16:28:11.650Z,16.57
2018-12-14T16:30:39.306Z,14.23
2018-12-14T16:33:06.961Z,15.10
2018-12-14T16:35:34.645Z,16.30
2018-12-14T16:38:02.291Z,13.80
2018-12-14T16:40:29.955Z,13.97
2018-12-14T16:42:57.588Z,14.70
2018-12-14T16:47:51.408Z,17.20
2018-12-14T16:50:19.206Z,14.40
2018-12-14T16:52:47.654Z,14.13
2018-12-14T16:55:15.496Z,19.40
2018-12-14T16:57:43.161Z,11.50
2018-12-14T17:00:10.831Z,14.80
2018-12-14T17:02:38.584Z,15.63
2018-12-14T17:05:07.291Z,16.03
2018-12-14T17:07:35.187Z,13.57
2018-12-14T17:10:03.495Z,12.37
2018-12-14T17:12:31.246Z,13.53
2018-12-14T17:14:58.858Z,12.53
2018-12-14T17:17:26.534Z,14.77
2018-12-14T17:19:54.011Z,16.87
2018-12-14T17:22:21.659Z,15.03
2018-12-14T17:24:49.334Z,16.40
2018-12-14T17:29:43.750Z,14.23
2018-12-14T17:32:11.384Z,13.17
2018-12-14T17:34:39.039Z,16.47
2018-12-14T17:37:06.712Z,12.97
2018-12-14T17:39:34.343Z,17.40
2018-12-14T17:42:02.025Z,15.33
2018-12-14T17:44:29.712Z,15.43
2018-12-14T17:46:58.074Z,13.97
2018-12-14T17:51:52.758Z,17.70
2018-12-14T17:54:20.413Z,15.00
2018-12-14T17:56:48.067Z,15.00
2018-12-14T17:59:15.699Z,14.43
2018-12-14T18:01:43.367Z,16.13
2018-12-14T18:04:11.009Z,20.53
2018-12-14T18:06:38.693Z,18.50
2018-12-14T18:09:06.445Z,14.40
2018-12-14T18:11:34.089Z,15.90
2018-12-14T18:14:01.737Z,18.60
2018-12-14T18:16:29.455Z,17.70
2018-12-14T18:18:57.111Z,18.63
2018-12-14T18:21:24.780Z,15.40
2018-12-14T18:23:52.419Z,17.20
2018-12-14T18:26:20.125Z,15.40
2018-12-14T18:28:47.951Z,15.87
2018-12-14T18:31:15.567Z,14.83
2018-12-14T18:33:43.240Z,17.17
2018-12-14T18:36:10.851Z,20.23
2018-12-14T18:38:38.483Z,13.83
2018-12-14T18:41:06.119Z,13.87
2018-12-14T18:43:33.708Z,15.53
2018-12-14T18:46:01.371Z,17.63
2018-12-14T18:48:29.031Z,14.40
2018-12-14T18:50:56.705Z,17.47
2018-12-14T18:53:24.395Z,12.60
2018-12-14T18:55:52.015Z,15.17
2018-12-14T18:58:19.683Z,15.87
2018-12-14T19:00:47.347Z,16.50
2018-12-14T19:03:15.021Z,15.47
2018-12-14T19:05:42.637Z,12.93
2018-12-14T19:08:10.332Z,15.77
2018-12-14T19:10:37.976Z,15.70
2018-12-14T19:13:05.602Z,17.37
2018-12-14T19:15:33.298Z,15.87
2018-12-14T19:18:01.013Z,17.17
2018-12-14T19:20:28.709Z,16.30
2018-12-14T19:22:56.438Z,13.63
2018-12-14T19:25:24.158Z,15.73
2018-12-14T19:27:51.833Z,18.30
2018-12-14T19:30:19.489Z,14.90
2018-12-14T19:32:47.260Z,15.73
2018-12-14T19:35:14.898Z,16.80
2018-12-14T19:37:42.593Z,16.47
2018-12-14T19:40:10.278Z,17.47
2018-12-14T19:42:37.957Z,19.13
2018-12-14T19:45:07.280Z,16.63
2018-12-14T19:47:34.994Z,15.30
2018-12-14T19:50:03.729Z,22.80
2018-12-14T19:52:31.543Z,18.03
2018-12-14T19:54:59.133Z,14.70
2018-12-14T19:57:26.814Z,17.27
2018-12-14T19:59:54.490Z,19.37
2018-12-14T20:02:22.347Z,14.80
2018-12-14T20:04:50.480Z,19.23
2018-12-14T20:07:18.215Z,17.70
2018-12-14T20:09:45.891Z,14.77
2018-12-14T20:12:13.625Z,15.67
2018-12-14T20:14:41.261Z,18.27
2018-12-14T20:17:08.991Z,17.13
2018-12-14T20:19:36.690Z,13.23
2018-12-14T20:22:04.487Z,15.70
2018-12-14T20:24:32.118Z,16.10
2018-12-14T20:27:00.016Z,18.17
2018-12-14T20:29:27.749Z,19.43
2018-12-14T20:31:55.397Z,20.20
2018-12-14T20:34:23.081Z,17.73
2018-12-14T20:36:50.770Z,16.10
2018-12-14T20:39:18.452Z,18.30
2018-12-14T20:41:46.104Z,17.90
2018-12-14T20:44:13.742Z,15.57
2018-12-14T20:46:41.416Z,16.17
2018-12-14T20:49:09.112Z,15.60
2018-12-14T20:51:36.759Z,19.93
2018-12-14T20:54:04.422Z,15.17
2018-12-14T20:56:32.119Z,17.40
2018-12-14T20:58:59.776Z,15.40
2018-12-14T21:01:27.432Z,14.53
2018-12-14T21:03:55.094Z,15.80
2018-12-14T21:06:22.764Z,17.47
2018-12-14T21:08:50.368Z,19.10
2018-12-14T21:11:18.070Z,19.00
2018-12-14T21:13:45.681Z,15.73
2018-12-14T21:16:13.340Z,16.67
2018-12-14T21:18:40.996Z,13.77
2018-12-14T21:21:08.672Z,13.13
2018-12-14T21:23:36.310Z,14.10
2018-12-14T21:26:04.002Z,13.60
2018-12-14T21:28:31.651Z,15.30
2018-12-14T21:30:59.332Z,14.23
2018-12-14T21:33:26.987Z,16.07
2018-12-14T21:35:54.623Z,15.43
2018-12-14T21:38:22.207Z,14.97
2018-12-14T21:40:49.874Z,16.27
2018-12-14T21:43:17.551Z,14.13
2018-12-14T21:45:45.264Z,11.37
2018-12-14T21:48:12.919Z,13.60
2018-12-14T21:50:40.655Z,13.57
2018-12-14T21:53:14.238Z,11.13
2018-12-14T21:55:38.166Z,19.53
2018-12-14T21:58:06.040Z,12.50
2018-12-14T22:00:33.676Z,14.53
2018-12-14T22:03:01.312Z,13.70
2018-12-14T22:05:28.962Z,19.37
2018-12-14T22:07:56.629Z,13.17
2018-12-14T22:10:24.280Z,17.13
2018-12-14T22:12:51.933Z,13.80
2018-12-14T22:15:19.558Z,15.30
2018-12-14T22:17:47.190Z,12.00
2018-12-14T22:20:14.838Z,15.90
2018-12-14T22:22:42.534Z,12.20
2018-12-14T22:25:10.189Z,10.93
2018-12-14T22:27:37.864Z,10.23
2018-12-14T22:30:05.841Z,11.80
2018-12-14T22:32:33.656Z,10.50
2018-12-14T22:35:01.309Z,14.70
2018-12-14T22:37:29.014Z,12.97
2018-12-14T22:39:56.741Z,11.13
2018-12-14T22:42:24.451Z,11.60
2018-12-14T22:44:52.096Z,11.57
2018-12-14T22:47:19.734Z,13.57
2018-12-14T22:49:47.422Z,9.93
2018-12-14T22:52:15.079Z,13.77
2018-12-14T22:54:42.690Z,13.50
2018-12-14T22:57:10.345Z,11.40
2018-12-14T22:59:38.045Z,14.10
2018-12-14T23:02:05.720Z,15.50
2018-12-14T23:04:33.371Z,12.20
2018-12-14T23:07:01.015Z,12.70
2018-12-14T23:09:28.746Z,14.47
2018-12-14T23:11:56.417Z,13.57
2018-12-14T23:14:24.050Z,12.67
2018-12-14T23:16:52.330Z,11.97
2018-12-14T23:19:20.232Z,16.00
2018-12-14T23:21:47.867Z,12.20
2018-12-14T23:24:15.537Z,13.07
2018-12-14T23:26:43.253Z,14.17
2018-12-14T23:29:10.877Z,14.00
2018-12-14T23:31:38.541Z,13.30
2018-12-14T23:34:06.158Z,12.43
2018-12-14T23:36:33.814Z,13.30
2018-12-14T23:39:01.405Z,12.20
2018-12-14T23:41:29.046Z,10.60
2018-12-14T23:43:56.677Z,11.67
2018-12-14T23:46:24.296Z,13.77
2018-12-14T23:48:51.934Z,13.47
2018-12-14T23:51:19.561Z,12.27
2018-12-14T23:53:47.201Z,11.87
2018-12-14T23:56:14.916Z,10.63
2018-12-14T23:58:42.571Z,14.53
